Time;durP1;ratioP1;P1;durP2;ratioP2;P2;SDS_P1;SDS_P2;PMS_P1;PMS_P2;Temp;Humidity;BMP_temperature;BMP_pressure;BME280_temperature;BME280_humidity;BME280_pressure;Samples;Min_cycle;Max_cycle;Signal;HPM_P1;HPM_P2
2022/11/14 00:02:02;;;;;;;0.10;0.10;;;4.80;99.90;3.10;96600.00;;;;5058264;28;20301;-72
2022/11/14 00:04:50;;;;;;;0.10;0.10;;;4.70;99.90;3.10;96604.00;;;;5052760;28;20225;-72
2022/11/14 00:07:37;;;;;;;0.10;0.10;;;4.60;99.90;3.10;96599.00;;;;5050322;28;20213;-72
2022/11/14 00:10:25;;;;;;;0.10;0.10;;;4.60;99.90;3.10;96605.00;;;;5052119;28;20947;-72
2022/11/14 00:13:12;;;;;;;0.10;0.10;;;4.60;99.90;3.10;96608.00;;;;5051073;28;20874;-71
2022/11/14 00:15:59;;;;;;;0.10;0.10;;;4.60;99.90;3.20;96599.00;;;;5051772;28;20687;-72
2022/11/14 00:18:45;;;;;;;0.10;0.10;;;4.70;99.90;3.20;96601.00;;;;5052197;28;20300;-72
2022/11/14 00:21:32;;;;;;;0.10;0.10;;;4.70;99.90;3.20;96609.00;;;;5052799;28;20208;-72
2022/11/14 00:24:19;;;;;;;0.10;0.10;;;4.70;99.90;3.10;96592.00;;;;5053374;28;20225;-72
2022/11/14 00:27:07;;;;;;;0.10;0.10;;;4.70;99.90;3.00;96617.00;;;;5051097;28;20248;-72
2022/11/14 00:29:54;;;;;;;0.10;0.10;;;4.60;99.90;3.10;96649.00;;;;5050793;28;20244;-72
2022/11/14 00:32:41;;;;;;;0.10;0.10;;;4.60;99.90;3.10;96247.00;;;;5045384;28;20314;-72
2022/11/14 00:35:27;;;;;;;0.10;0.10;;;4.70;99.90;3.00;96237.00;;;;5044367;28;20352;-73
2022/11/14 00:38:15;;;;;;;0.10;0.10;;;4.70;99.90;2.70;96249.00;;;;5050567;28;20213;-72
2022/11/14 00:41:01;;;;;;;0.10;0.10;;;4.50;99.90;2.70;96213.00;;;;5048253;28;20232;-75
2022/11/14 00:43:49;;;;;;;0.10;0.10;;;4.60;99.90;2.80;96253.00;;;;5048866;28;20260;-73
2022/11/14 00:46:37;;;;;;;0.10;0.10;;;4.60;99.90;2.80;96230.00;;;;5044515;28;20214;-72
2022/11/14 00:49:24;;;;;;;0.10;0.10;;;4.50;99.90;2.90;96249.00;;;;5050931;28;20224;-74
2022/11/14 00:52:10;;;;;;;0.10;0.10;;;4.60;99.90;2.90;96248.00;;;;5051519;28;20301;-72
2022/11/14 00:54:57;;;;;;;0.10;0.10;;;4.60;99.90;2.80;96248.00;;;;5046598;28;20208;-72
2022/11/14 00:57:44;;;;;;;0.10;0.10;;;4.50;99.90;2.80;96248.00;;;;5051047;28;20589;-73
2022/11/14 01:00:32;;;;;;;0.10;0.10;;;4.60;99.90;2.70;96138.00;;;;5059891;22;20718;-73
2022/11/14 01:03:19;;;;;;;0.10;0.10;;;4.40;99.90;2.60;96145.00;;;;5042356;28;20214;-72
2022/11/14 01:06:10;;;;;;;0.10;0.10;;;4.40;99.90;2.70;96199.00;;;;5051119;28;20209;-73
2022/11/14 01:08:57;;;;;;;0.10;0.10;;;4.50;99.90;2.80;96186.00;;;;5051680;28;20677;-72
2022/11/14 01:11:44;;;;;;;0.10;0.10;;;4.60;99.90;2.90;96170.00;;;;5050547;28;20236;-72
2022/11/14 01:14:30;;;;;;;0.10;0.10;;;4.60;99.90;2.50;96125.00;;;;5046254;28;20201;-72
2022/11/14 01:17:18;;;;;;;0.10;0.10;;;4.30;99.90;2.30;96107.00;;;;5050282;28;20205;-73
2022/11/14 01:20:06;;;;;;;0.10;0.10;;;4.20;99.90;2.20;96095.00;;;;5051830;28;20583;-73
2022/11/14 01:22:53;;;;;;;0.10;0.10;;;4.00;99.90;2.10;96136.00;;;;5046314;28;20241;-74
2022/11/14 01:25:41;;;;;;;0.10;0.10;;;3.90;99.90;2.20;96163.00;;;;5054366;28;20568;-74
2022/11/14 01:28:28;;;;;;;0.10;0.10;;;4.00;99.90;2.30;96235.00;;;;5056793;28;20214;-73
2022/11/14 01:31:17;;;;;;;0.10;0.10;;;4.10;99.90;2.30;96233.00;;;;5055727;28;20214;-73
2022/11/14 01:34:05;;;;;;;0.10;0.10;;;4.00;99.90;2.40;96165.00;;;;5049307;28;20222;-73
2022/11/14 01:36:52;;;;;;;0.10;0.10;;;4.10;99.90;2.60;96186.00;;;;5045744;28;20565;-71
2022/11/14 01:39:39;;;;;;;0.00;0.00;;;4.30;99.90;2.70;96198.00;;;;5048334;28;20237;-73
2022/11/14 01:42:26;;;;;;;0.10;0.10;;;4.40;99.90;2.50;96188.00;;;;5051044;28;20213;-73
2022/11/14 01:45:52;;;;;;;0.10;0.10;;;4.30;99.90;2.20;96166.00;;;;5045747;28;20293;-75
2022/11/14 01:48:43;;;;;;;0.10;0.10;;;4.00;99.90;2.30;96291.00;;;;4949119;29;20282;-74
2022/11/14 01:51:36;;;;;;;0.10;0.10;;;4.10;99.90;2.20;96016.00;;;;4955275;29;20237;-74
2022/11/14 01:54:27;;;;;;;0.10;0.10;;;4.10;99.90;2.30;96024.00;;;;5051354;28;20213;-72
2022/11/14 01:57:20;;;;;;;0.10;0.10;;;4.20;99.90;2.30;95995.00;;;;5052981;28;20217;-72
2022/11/14 02:00:11;;;;;;;0.10;0.10;;;4.10;99.90;2.40;95991.00;;;;5054254;28;20243;-73
2022/11/14 02:02:59;;;;;;;0.10;0.10;;;4.10;99.90;2.20;95952.00;;;;5054218;28;20340;-73
2022/11/14 02:05:48;;;;;;;0.10;0.10;;;4.00;99.90;2.20;95938.00;;;;5053376;28;20267;-74
2022/11/14 02:08:37;;;;;;;0.10;0.10;;;4.00;99.90;2.20;95974.00;;;;5042026;28;20214;-73
2022/11/14 02:11:24;;;;;;;0.10;0.10;;;4.00;99.90;2.20;96112.00;;;;5049211;28;20607;-72
2022/11/14 02:14:11;;;;;;;0.10;0.10;;;3.90;99.90;2.30;95998.00;;;;5052851;28;20276;-73
2022/11/14 02:16:58;;;;;;;0.10;0.10;;;4.00;99.90;2.00;95992.00;;;;5053577;28;20209;-72
2022/11/14 02:20:17;;;;;;;0.10;0.10;;;4.10;99.90;2.30;96005.00;;;;5052953;28;20228;-73
2022/11/14 02:23:04;;;;;;;0.10;0.10;;;4.10;99.90;2.30;96137.00;;;;5050212;28;20209;-73
2022/11/14 02:25:51;;;;;;;0.10;0.10;;;4.00;99.90;2.20;96057.00;;;;5046889;28;20208;-73
2022/11/14 02:28:37;;;;;;;0.10;0.10;;;4.00;99.90;2.20;95934.00;;;;5052735;28;20691;-72
2022/11/14 02:31:24;;;;;;;0.10;0.10;;;3.90;99.90;2.00;95921.00;;;;5052926;28;20229;-72
2022/11/14 02:34:11;;;;;;;0.10;0.10;;;3.80;99.90;1.90;95894.00;;;;5050464;28;20224;-72
2022/11/14 02:36:59;;;;;;;0.08;0.08;;;3.70;99.90;1.80;95892.00;;;;5049067;28;20248;-72
2022/11/14 02:39:47;;;;;;;0.10;0.10;;;3.60;99.90;1.80;95947.00;;;;5053690;28;20352;-72
2022/11/14 02:42:33;;;;;;;0.10;0.10;;;3.60;99.90;1.90;96011.00;;;;5046261;28;20282;-71
2022/11/14 02:45:20;;;;;;;0.10;0.10;;;3.70;99.90;2.00;96046.00;;;;5045293;28;20209;-72
2022/11/14 02:48:07;;;;;;;0.10;0.10;;;3.80;99.90;2.10;96046.00;;;;5053269;28;20206;-72
2022/11/14 02:50:54;;;;;;;0.10;0.10;;;3.80;99.90;2.10;96041.00;;;;5053860;28;20241;-72
2022/11/14 02:53:42;;;;;;;0.10;0.10;;;3.80;99.90;2.20;95934.00;;;;5053424;28;20209;-72
2022/11/14 02:56:29;;;;;;;0.10;0.10;;;3.90;99.90;2.10;95876.00;;;;5053040;28;20643;-71
2022/11/14 02:59:16;;;;;;;0.10;0.10;;;3.80;99.90;2.10;95877.00;;;;5046185;28;20200;-71
2022/11/14 03:02:03;;;;;;;0.08;0.08;;;3.90;99.90;2.00;95869.00;;;;5050192;28;20229;-71
2022/11/14 03:04:50;;;;;;;0.10;0.10;;;3.80;99.90;2.10;95827.00;;;;5054579;28;20209;-71
2022/11/14 03:07:37;;;;;;;0.10;0.10;;;3.90;99.90;2.00;95795.00;;;;5057704;28;20200;-71
2022/11/14 03:10:25;;;;;;;0.10;0.10;;;3.80;99.90;2.00;95785.00;;;;5056025;28;20260;-72
2022/11/14 03:13:12;;;;;;;0.10;0.10;;;3.80;99.90;2.00;95779.00;;;;5048782;28;20209;-72
2022/11/14 03:16:07;;;;;;;0.10;0.10;;;3.80;99.90;1.80;95785.00;;;;5051961;28;20205;-72
2022/11/14 03:18:53;;;;;;;0.10;0.10;;;3.60;99.90;1.70;95742.00;;;;5046371;28;20213;-72
2022/11/14 03:21:40;;;;;;;0.10;0.10;;;3.50;99.90;1.60;95737.00;;;;5043604;28;20237;-71
2022/11/14 03:24:27;;;;;;;0.10;0.10;;;3.30;99.90;1.50;95759.00;;;;5045455;28;20687;-71
2022/11/14 03:27:15;;;;;;;0.10;0.10;;;3.40;99.90;1.80;95725.00;;;;5049196;28;20200;-71
2022/11/14 03:30:01;;;;;;;0.10;0.10;;;3.60;99.90;2.10;95802.00;;;;5051252;28;20229;-71
2022/11/14 03:32:48;;;;;;;0.10;0.10;;;3.80;99.90;2.20;95831.00;;;;5052952;28;20256;-71
2022/11/14 03:35:35;;;;;;;0.10;0.10;;;4.00;99.90;3.00;95906.00;;;;5044636;28;20233;-72
2022/11/14 03:38:22;;;;;;;0.10;0.10;;;4.60;99.90;3.30;95945.00;;;;5048260;28;20699;-72
2022/11/14 03:41:09;;;;;;;0.10;0.10;;;4.90;99.90;3.60;95991.00;;;;5048475;28;20236;-72
2022/11/14 03:43:57;;;;;;;0.10;0.10;;;5.20;99.90;3.60;96253.00;;;;5051920;28;20221;-72
2022/11/14 03:46:44;;;;;;;0.10;0.10;;;5.20;99.90;3.60;96102.00;;;;5040075;28;20217;-72
2022/11/14 03:49:30;;;;;;;0.10;0.10;;;5.20;99.90;3.60;96116.00;;;;5051305;28;20248;-71
2022/11/14 03:52:17;;;;;;;0.10;0.10;;;5.30;99.90;3.80;96113.00;;;;5046515;28;20213;-71
2022/11/14 03:55:05;;;;;;;0.10;0.10;;;5.40;99.90;3.90;96111.00;;;;5043336;28;20376;-71
2022/11/14 03:57:51;;;;;;;0.10;0.10;;;5.50;99.90;4.00;96094.00;;;;5049900;28;20213;-71
2022/11/14 04:00:40;;;;;;;0.10;0.10;;;5.60;99.90;4.20;96111.00;;;;5044384;28;20259;-71
2022/11/14 04:03:26;;;;;;;0.00;0.00;;;5.80;99.90;4.30;96161.00;;;;5051183;28;20217;-71
2022/11/14 04:06:14;;;;;;;0.10;0.10;;;5.90;99.90;4.30;96093.00;;;;5048848;28;20236;-72
2022/11/14 04:09:00;;;;;;;0.00;0.00;;;5.90;99.90;4.40;96084.00;;;;5050658;28;20205;-72
2022/11/14 04:11:47;;;;;;;0.08;0.08;;;6.00;99.90;4.50;96078.00;;;;5046943;28;20229;-72
2022/11/14 04:14:34;;;;;;;0.10;0.10;;;6.10;99.90;4.60;96023.00;;;;5051250;28;20369;-72
2022/11/14 04:17:22;;;;;;;0.10;0.10;;;6.20;99.90;4.60;95979.00;;;;5050610;28;20279;-73
2022/11/14 04:20:11;;;;;;;0.10;0.10;;;6.30;99.90;4.70;95980.00;;;;5051414;28;20236;-72
2022/11/14 04:22:57;;;;;;;0.10;0.10;;;6.30;99.90;4.70;96045.00;;;;5051930;28;20564;-71
2022/11/14 04:25:45;;;;;;;0.10;0.10;;;6.30;99.90;4.50;95979.00;;;;5039582;28;20226;-72
2022/11/14 04:28:32;;;;;;;0.10;0.10;;;6.20;99.90;4.50;95989.00;;;;5045846;28;20206;-72
2022/11/14 04:31:19;;;;;;;0.10;0.10;;;6.10;99.90;4.50;95987.00;;;;5050419;28;20805;-72
2022/11/14 04:34:07;;;;;;;0.10;0.10;;;6.10;99.90;4.60;96067.00;;;;5050959;28;20205;-71
2022/11/14 04:36:54;;;;;;;0.10;0.10;;;6.20;99.90;4.50;95982.00;;;;5045507;28;20244;-71
2022/11/14 04:39:40;;;;;;;0.10;0.10;;;6.20;99.90;4.50;95973.00;;;;5043286;28;20216;-71
2022/11/14 04:42:27;;;;;;;0.10;0.10;;;6.20;99.90;4.50;95962.00;;;;5039922;28;20318;-71
2022/11/14 04:45:14;;;;;;;0.10;0.10;;;6.10;99.90;4.50;95931.00;;;;5050313;28;20209;-74
2022/11/14 04:48:00;;;;;;;0.10;0.10;;;6.10;99.90;4.60;95967.00;;;;5050338;28;20205;-74
2022/11/14 04:50:48;;;;;;;0.10;0.10;;;6.20;99.90;4.60;96098.00;;;;5045140;28;20335;-72
2022/11/14 04:53:35;;;;;;;0.10;0.10;;;6.30;99.90;4.70;96092.00;;;;5048045;28;20224;-74
2022/11/14 04:56:24;;;;;;;0.10;0.10;;;6.30;99.90;4.80;96120.00;;;;5049408;28;20209;-74
2022/11/14 04:59:11;;;;;;;0.10;0.10;;;6.40;99.90;4.80;96038.00;;;;5040243;28;20201;-73
2022/11/14 05:02:03;;;;;;;0.10;0.10;;;6.40;99.90;4.80;96113.00;;;;5051199;28;20324;-70
2022/11/14 05:04:50;;;;;;;0.10;0.10;;;6.40;99.90;4.70;96086.00;;;;5050259;28;20205;-70
2022/11/14 05:07:38;;;;;;;0.10;0.10;;;6.40;99.90;4.70;96074.00;;;;5048257;28;20332;-70
2022/11/14 05:10:24;;;;;;;0.10;0.10;;;6.30;99.90;4.70;96068.00;;;;5048876;28;20297;-70
2022/11/14 05:13:12;;;;;;;0.10;0.10;;;6.40;99.90;4.80;96125.00;;;;5049923;28;20601;-70
2022/11/14 05:15:59;;;;;;;0.10;0.10;;;6.40;99.90;4.80;96172.00;;;;5035506;28;20229;-73
2022/11/14 05:18:46;;;;;;;0.10;0.10;;;6.40;99.90;4.70;95960.00;;;;5035051;28;20218;-70
2022/11/14 05:21:33;;;;;;;0.10;0.10;;;6.40;99.90;4.80;95988.00;;;;5049471;28;20233;-70
2022/11/14 05:24:21;;;;;;;0.10;0.10;;;6.40;99.90;4.80;95954.00;;;;5046990;28;20307;-70
2022/11/14 05:27:07;;;;;;;0.10;0.10;;;6.50;99.90;4.80;95936.00;;;;5041535;28;20214;-70
2022/11/14 05:29:54;;;;;;;0.10;0.10;;;6.50;99.90;4.80;95947.00;;;;5044638;28;20744;-71
2022/11/14 05:32:41;;;;;;;0.10;0.10;;;6.40;99.90;4.90;95979.00;;;;5053345;28;20213;-71
2022/11/14 05:35:27;;;;;;;0.10;0.10;;;6.50;99.90;4.80;95980.00;;;;5053255;28;20336;-71
2022/11/14 05:38:14;;;;;;;0.10;0.10;;;6.50;99.90;4.80;95979.00;;;;5052164;28;20205;-71
2022/11/14 05:41:06;;;;;;;0.00;0.00;;;6.50;99.90;4.80;95954.00;;;;5054504;28;20233;-72
2022/11/14 05:43:53;;;;;;;0.10;0.10;;;6.50;99.90;4.80;95955.00;;;;5045738;28;20295;-71
2022/11/14 05:46:39;;;;;;;0.10;0.10;;;6.50;99.90;4.80;95974.00;;;;5052684;28;20613;-71
2022/11/14 05:49:26;;;;;;;0.00;0.00;;;6.50;99.90;4.80;95973.00;;;;5053046;28;20255;-71
2022/11/14 05:52:13;;;;;;;0.10;0.10;;;6.50;99.90;4.80;95985.00;;;;5049052;28;20240;-71
2022/11/14 05:55:00;;;;;;;0.10;0.10;;;6.50;99.90;4.90;95980.00;;;;5052208;28;20220;-73
2022/11/14 05:57:48;;;;;;;0.08;0.08;;;6.60;99.90;4.90;96018.00;;;;5047489;28;20715;-71
2022/11/14 06:00:35;;;;;;;0.10;0.10;;;6.60;99.90;4.90;96018.00;;;;5045442;28;20259;-72
2022/11/14 06:03:38;;;;;;;0.10;0.10;;;6.50;99.90;4.70;96003.00;;;;5048563;28;20197;-72
2022/11/14 06:06:24;;;;;;;0.10;0.10;;;6.60;99.90;5.10;96029.00;;;;5052546;28;20534;-72
2022/11/14 06:09:11;;;;;;;0.10;0.10;;;6.70;99.90;5.10;96039.00;;;;5051818;28;20305;-72
2022/11/14 06:11:58;;;;;;;0.10;0.10;;;6.70;99.90;5.10;96032.00;;;;5052748;28;20209;-72
2022/11/14 06:14:46;;;;;;;0.10;0.10;;;6.70;99.90;5.00;96031.00;;;;5053431;28;20264;-71
2022/11/14 06:17:33;;;;;;;0.10;0.10;;;6.70;99.90;5.00;95988.00;;;;5051925;28;20268;-72
2022/11/14 06:20:20;;;;;;;0.10;0.10;;;6.60;99.90;4.90;95986.00;;;;5055295;28;20229;-72
2022/11/14 06:23:07;;;;;;;0.10;0.10;;;6.60;99.90;4.90;96044.00;;;;5049960;28;20229;-72
2022/11/14 06:25:59;;;;;;;0.10;0.10;;;6.60;99.90;5.10;96024.00;;;;5053395;28;20273;-72
2022/11/14 06:28:46;;;;;;;0.10;0.10;;;6.70;99.90;5.10;96203.00;;;;5052955;28;20213;-72
2022/11/14 06:31:34;;;;;;;0.10;0.10;;;6.70;99.90;5.00;96023.00;;;;5054065;28;20283;-72
2022/11/14 06:34:21;;;;;;;0.10;0.10;;;6.70;99.90;5.10;96069.00;;;;5052646;28;20209;-72
2022/11/14 06:37:08;;;;;;;0.08;0.08;;;6.70;99.90;5.00;96133.00;;;;5054377;28;20225;-72
2022/11/14 06:39:54;;;;;;;0.10;0.10;;;6.70;99.90;5.00;96086.00;;;;5049038;28;20356;-72
2022/11/14 06:42:41;;;;;;;0.10;0.10;;;6.70;99.90;5.00;96099.00;;;;5053310;28;20259;-72
2022/11/14 06:45:28;;;;;;;0.10;0.10;;;6.60;99.90;5.00;96093.00;;;;5059840;28;20213;-72
2022/11/14 06:48:16;;;;;;;0.10;0.10;;;6.60;99.90;5.10;96109.00;;;;5058002;28;20632;-72
2022/11/14 06:51:05;;;;;;;0.00;0.00;;;6.70;99.90;5.10;96114.00;;;;5053402;28;20224;-72
2022/11/14 06:53:52;;;;;;;0.10;0.10;;;6.70;99.90;5.10;96222.00;;;;5063517;28;20256;-72
2022/11/14 06:56:39;;;;;;;0.10;0.10;;;6.70;99.90;5.50;97279.00;;;;5061436;28;20268;-72
2022/11/14 06:59:26;;;;;;;0.10;0.10;;;6.60;99.90;5.50;97289.00;;;;5061762;28;20321;-72
2022/11/14 07:02:13;;;;;;;0.10;0.10;;;6.70;99.90;5.30;96871.00;;;;5056352;28;20264;-74
2022/11/14 07:05:09;;;;;;;0.10;0.10;;;6.60;99.90;5.40;97226.00;;;;5053926;28;20335;-75
2022/11/14 07:07:57;;;;;;;0.10;0.10;;;6.60;99.90;5.40;96902.00;;;;5047276;28;20340;-75
2022/11/14 07:10:44;;;;;;;0.10;0.10;;;6.60;99.90;5.40;96918.00;;;;5038747;28;20691;-74
2022/11/14 07:13:32;;;;;;;0.10;0.10;;;6.60;99.90;5.50;96910.00;;;;5052957;28;20209;-76
2022/11/14 07:16:19;;;;;;;0.10;0.10;;;6.70;99.90;5.50;96916.00;;;;5053026;28;20206;-74
2022/11/14 07:19:09;;;;;;;0.10;0.10;;;6.70;99.90;5.60;97137.00;;;;5052113;28;20204;-74
2022/11/14 07:21:56;;;;;;;0.00;0.00;;;6.70;99.90;5.60;97213.00;;;;5047374;28;20374;-74
2022/11/14 07:24:43;;;;;;;0.10;0.10;;;6.80;99.90;5.70;97214.00;;;;5052459;28;20205;-74
2022/11/14 07:27:30;;;;;;;0.10;0.10;;;6.80;99.90;5.20;95904.00;;;;5051513;28;20252;-76
2022/11/14 07:30:17;;;;;;;0.00;0.00;;;6.80;99.90;5.80;97207.00;;;;5052009;28;20224;-74
2022/11/14 07:33:04;;;;;;;0.10;0.10;;;6.90;99.90;5.80;97228.00;;;;5048553;28;20696;-74
2022/11/14 07:35:51;;;;;;;0.10;0.10;;;6.90;99.90;5.80;97154.00;;;;5047212;28;20238;-75
2022/11/14 07:38:39;;;;;;;0.10;0.10;;;6.90;99.90;5.80;97252.00;;;;5050637;28;20255;-74
2022/11/14 07:41:26;;;;;;;0.10;0.10;;;7.00;99.90;5.90;97260.00;;;;5051372;28;20306;-74
2022/11/14 07:44:13;;;;;;;0.10;0.10;;;7.00;99.90;6.00;97255.00;;;;5051726;28;20303;-74
2022/11/14 07:47:00;;;;;;;0.10;0.10;;;7.10;99.90;6.00;97259.00;;;;5051540;28;20213;-74
2022/11/14 07:49:46;;;;;;;0.10;0.10;;;7.10;99.90;6.00;97246.00;;;;5049271;28;20209;-74
2022/11/14 07:52:33;;;;;;;0.00;0.00;;;7.20;99.90;6.10;97022.00;;;;5044505;28;20209;-75
2022/11/14 07:55:22;;;;;;;0.10;0.10;;;7.20;99.90;6.10;97019.00;;;;5049884;28;20267;-74
2022/11/14 07:58:08;;;;;;;0.10;0.10;;;7.20;99.90;6.10;96977.00;;;;5050888;28;20597;-74
2022/11/14 08:00:55;;;;;;;0.10;0.10;;;7.30;99.90;5.90;96959.00;;;;5051364;28;20240;-74
2022/11/14 08:03:42;;;;;;;0.10;0.10;;;7.30;99.90;6.20;96948.00;;;;5047871;28;20683;-74
2022/11/14 08:06:32;;;;;;;0.10;0.10;;;7.30;99.90;6.20;96971.00;;;;5051310;28;20283;-74
2022/11/14 08:09:18;;;;;;;0.10;0.10;;;7.30;99.90;6.20;96965.00;;;;5049057;28;20209;-74
2022/11/14 08:12:07;;;;;;;0.10;0.10;;;7.30;99.90;6.20;96957.00;;;;5051760;28;20214;-74
2022/11/14 08:14:53;;;;;;;0.10;0.10;;;7.40;99.90;6.30;96965.00;;;;5051731;28;20209;-74
2022/11/14 08:17:40;;;;;;;0.10;0.10;;;7.40;99.90;6.30;96968.00;;;;5050102;28;20751;-74
2022/11/14 08:20:27;;;;;;;0.10;0.10;;;7.40;99.90;6.30;96961.00;;;;5050947;28;20229;-74
2022/11/14 08:23:15;;;;;;;0.10;0.10;;;7.50;99.90;6.40;96967.00;;;;5049590;28;20252;-76
2022/11/14 08:26:02;;;;;;;0.10;0.10;;;7.50;99.90;6.40;96946.00;;;;5053482;28;20623;-77
2022/11/14 08:28:52;;;;;;;0.10;0.10;;;7.50;99.90;6.40;96978.00;;;;5052715;28;20209;-75
2022/11/14 08:31:39;;;;;;;0.10;0.10;;;7.50;99.90;6.50;96983.00;;;;5041050;28;20233;-75
2022/11/14 08:34:27;;;;;;;0.10;0.10;;;7.60;99.90;6.50;96980.00;;;;5052130;28;20654;-74
2022/11/14 08:37:15;;;;;;;0.10;0.10;;;7.60;99.90;6.60;96925.00;;;;5052094;28;20747;-74
2022/11/14 08:40:02;;;;;;;0.10;0.10;;;7.70;99.90;6.60;96997.00;;;;5047580;28;20747;-74
2022/11/14 08:42:49;;;;;;;0.10;0.10;;;7.70;99.90;6.70;97223.00;;;;5047694;28;20240;-75
2022/11/14 08:45:38;;;;;;;0.10;0.10;;;7.80;99.90;6.80;97217.00;;;;5043671;28;20206;-76
2022/11/14 08:48:25;;;;;;;0.10;0.10;;;7.90;99.90;6.80;96996.00;;;;5050023;28;20197;-76
2022/11/14 08:51:12;;;;;;;0.00;0.00;;;7.90;99.90;6.80;96980.00;;;;5054401;28;20589;-76
2022/11/14 08:53:59;;;;;;;0.10;0.10;;;7.90;99.90;6.80;96955.00;;;;5055504;28;20236;-76
2022/11/14 08:56:46;;;;;;;0.10;0.10;;;7.90;99.90;6.90;96987.00;;;;5054576;28;20312;-75
2022/11/14 08:59:33;;;;;;;0.10;0.10;;;8.00;99.90;7.00;96986.00;;;;5048805;28;20221;-75
2022/11/14 09:02:22;;;;;;;0.10;0.10;;;8.00;99.90;7.00;96992.00;;;;5054423;28;20205;-76
2022/11/14 09:05:09;;;;;;;0.10;0.10;;;8.10;99.90;7.00;96842.00;;;;5049664;28;20688;-76
2022/11/14 09:07:55;;;;;;;0.10;0.10;;;8.10;99.90;7.00;97003.00;;;;5054533;28;20213;-76
2022/11/14 09:10:42;;;;;;;0.10;0.10;;;8.10;99.90;7.10;97209.00;;;;5053033;28;20244;-75
2022/11/14 09:13:29;;;;;;;0.10;0.10;;;8.10;99.90;7.10;96984.00;;;;5055477;28;20283;-76
2022/11/14 09:16:16;;;;;;;0.10;0.10;;;8.10;99.90;7.10;97170.00;;;;5052669;28;20244;-75
2022/11/14 09:19:04;;;;;;;0.10;0.10;;;8.20;99.90;7.10;97027.00;;;;5054644;28;21163;-75
2022/11/14 09:21:51;;;;;;;0.10;0.10;;;8.20;99.90;7.20;97007.00;;;;5055226;28;20569;-75
2022/11/14 09:24:38;;;;;;;0.10;0.10;;;8.20;99.90;7.20;97006.00;;;;5055065;28;20233;-75
2022/11/14 09:27:27;;;;;;;0.10;0.10;;;8.30;99.90;7.30;97009.00;;;;5054496;28;20328;-76
2022/11/14 09:30:15;;;;;;;0.10;0.10;;;8.30;99.90;7.30;97245.00;;;;5055380;28;20229;-75
2022/11/14 09:33:03;;;;;;;0.03;0.03;;;8.40;99.90;7.40;97008.00;;;;5055684;28;20201;-76
2022/11/14 09:36:01;;;;;;;0.10;0.10;;;8.40;99.90;7.50;97221.00;;;;5050648;28;20209;-75
2022/11/14 09:38:47;;;;;;;0.10;0.10;;;8.50;99.90;7.60;97241.00;;;;5053868;28;20324;-75
2022/11/14 09:41:54;;;;;;;0.00;0.00;;;8.60;99.90;7.70;97258.00;;;;5054166;28;20336;-75
2022/11/14 09:44:54;;;;;;;0.10;0.10;;;8.70;99.90;7.70;97028.00;;;;5052048;28;20280;-75
2022/11/14 09:47:45;;;;;;;0.10;0.10;;;8.70;99.90;7.70;97037.00;;;;5053684;28;20688;-75
2022/11/14 09:50:37;;;;;;;0.00;0.00;;;8.70;99.90;7.70;97031.00;;;;5054034;28;20755;-75
2022/11/14 09:53:33;;;;;;;0.10;0.10;;;8.80;99.90;7.80;97040.00;;;;5053788;28;20216;-76
2022/11/14 09:56:24;;;;;;;0.10;0.10;;;8.80;99.90;7.90;97054.00;;;;5055044;28;20291;-75
2022/11/14 09:59:12;;;;;;;0.10;0.10;;;8.90;99.90;8.00;97044.00;;;;5054945;28;20213;-75
2022/11/14 10:02:13;;;;;;;0.10;0.10;;;9.00;99.90;8.00;97026.00;;;;5049686;28;20340;-75
2022/11/14 10:05:24;;;;;;;0.10;0.10;;;9.10;99.90;8.10;97036.00;;;;5043234;28;20578;-75
2022/11/14 10:08:43;;;;;;;0.10;0.10;;;9.10;99.90;8.10;97010.00;;;;5053216;28;20213;-75
2022/11/14 10:11:38;;;;;;;0.10;0.10;;;9.10;99.90;8.10;96993.00;;;;5052802;28;20229;-75
2022/11/14 10:14:57;;;;;;;0.10;0.10;;;9.20;99.90;8.20;96991.00;;;;5052451;28;20324;-75
2022/11/14 10:18:15;;;;;;;0.08;0.08;;;9.30;99.90;8.40;97001.00;;;;5053211;28;20308;-75
2022/11/14 10:21:22;;;;;;;0.10;0.10;;;9.40;99.90;8.60;97014.00;;;;5052759;28;20229;-76
2022/11/14 10:24:37;;;;;;;0.10;0.10;;;9.50;99.90;8.60;97009.00;;;;5049983;28;20233;-75
2022/11/14 10:27:30;;;;;;;0.10;0.10;;;9.60;99.90;8.70;96988.00;;;;5052702;28;20364;-76
2022/11/14 10:30:19;;;;;;;0.10;0.10;;;9.70;99.90;8.60;96966.00;;;;5053458;28;20229;-76
2022/11/14 10:33:20;;;;;;;0.10;0.10;;;9.70;99.90;8.70;96978.00;;;;5050084;28;20206;-75
2022/11/14 10:36:18;;;;;;;0.10;0.10;;;9.70;99.90;8.90;96997.00;;;;5050432;28;20201;-76
2022/11/14 10:39:19;;;;;;;0.10;0.10;;;9.90;99.90;8.90;96989.00;;;;5048957;28;20216;-76
2022/11/14 10:42:15;;;;;;;0.10;0.10;;;9.90;99.90;8.90;96945.00;;;;5053252;28;20213;-76
2022/11/14 10:45:11;;;;;;;0.10;0.10;;;9.90;99.90;9.00;96988.00;;;;5049041;28;20224;-76
2022/11/14 10:48:08;;;;;;;0.10;0.10;;;10.00;99.90;9.10;97005.00;;;;5049408;28;20220;-76
2022/11/14 10:50:58;;;;;;;0.00;0.00;;;10.00;99.90;9.10;97022.00;;;;5047772;28;20243;-75
2022/11/14 10:53:55;;;;;;;0.10;0.10;;;10.00;99.90;9.10;96993.00;;;;5046510;28;20599;-75
2022/11/14 10:56:52;;;;;;;0.10;0.10;;;10.10;99.90;9.00;97012.00;;;;5046001;28;20727;-75
2022/11/14 10:59:39;;;;;;;0.10;0.10;;;10.00;99.90;9.10;97037.00;;;;5046938;28;20234;-76
2022/11/14 11:02:26;;;;;;;0.10;0.10;;;10.10;99.90;9.20;97012.00;;;;5052719;28;20201;-76
2022/11/14 11:05:17;;;;;;;0.10;0.10;;;10.20;99.90;9.30;96991.00;;;;5052456;28;20311;-76
2022/11/14 11:11:29;;;;;;;0.03;0.03;;;10.30;99.90;9.40;97001.00;;;;5032057;28;20727;-76
2022/11/14 11:14:19;;;;;;;0.10;0.10;;;10.40;99.90;9.50;96969.00;;;;5049947;28;20297;-76
2022/11/14 11:17:19;;;;;;;0.10;0.10;;;10.50;99.90;9.60;96970.00;;;;5052724;28;20220;-76
2022/11/14 11:20:31;;;;;;;0.10;0.10;;;10.60;99.90;9.70;96965.00;;;;5049226;28;20228;-76
2022/11/14 11:23:23;;;;;;;0.10;0.10;;;10.70;99.90;9.80;96981.00;;;;5050510;28;20205;-76
2022/11/14 11:26:20;;;;;;;0.10;0.10;;;10.80;99.90;10.00;96976.00;;;;5047774;28;20206;-75
2022/11/14 11:29:17;;;;;;;0.10;0.10;;;10.90;99.90;10.10;96933.00;;;;5037971;28;20254;-76
2022/11/14 11:32:05;;;;;;;0.10;0.10;;;11.10;99.90;10.20;96965.00;;;;5048519;28;20289;-75
2022/11/14 11:34:52;;;;;;;0.10;0.10;;;11.10;99.90;10.40;97197.00;;;;5047312;28;20217;-76
2022/11/14 11:37:45;;;;;;;0.03;0.03;;;11.30;99.90;11.70;96926.00;;;;5052078;28;20232;-75
2022/11/14 11:40:32;;;;;;;0.10;0.10;;;11.80;99.90;14.60;97004.00;;;;5051983;28;20283;-76
2022/11/14 11:43:31;;;;;;;0.00;0.00;;;12.80;99.90;16.10;97018.00;;;;5050482;28;20209;-75
2022/11/14 11:46:37;;;;;;;0.10;0.10;;;13.70;99.90;17.10;97019.00;;;;5050114;28;20719;-74
2022/11/14 11:49:38;;;;;;;0.10;0.10;;;14.80;99.90;16.90;97014.00;;;;5050851;28;20201;-74
2022/11/14 11:52:34;;;;;;;0.10;0.10;;;15.30;99.90;16.50;97032.00;;;;5051087;28;20299;-74
2022/11/14 11:55:25;;;;;;;0.10;0.10;;;15.40;99.90;17.10;97029.00;;;;5050120;28;20213;-74
2022/11/14 11:58:22;;;;;;;0.00;0.00;;;16.00;99.90;17.80;97029.00;;;;5051552;28;20214;-74
2022/11/14 12:01:11;;;;;;;0.10;0.10;;;16.90;99.90;17.80;97030.00;;;;5052402;28;20712;-74
2022/11/14 12:04:02;;;;;;;0.00;0.00;;;17.30;99.90;18.30;97034.00;;;;5050559;28;20344;-74
2022/11/14 12:07:02;;;;;;;0.10;0.10;;;17.90;99.90;17.90;97067.00;;;;5047489;28;20208;-74
2022/11/14 12:09:53;;;;;;;0.00;0.00;;;17.90;99.90;16.80;97096.00;;;;5046343;28;20327;-74
2022/11/14 12:13:26;;;;;;;0.00;0.00;;;17.20;99.90;15.90;97063.00;;;;5052203;28;20205;-74
2022/11/14 12:17:00;;;;;;;0.00;0.00;;;16.70;99.90;15.70;97083.00;;;;5049595;28;20271;-74
2022/11/14 12:20:22;;;;;;;0.00;0.00;;;16.30;99.90;15.50;97143.00;;;;5047128;28;20263;-74
2022/11/14 12:23:57;;;;;;;0.05;0.05;;;16.40;99.90;16.20;97145.00;;;;5052908;28;20563;-74
2022/11/14 12:27:19;;;;;;;0.00;0.00;;;17.10;99.90;17.10;97078.00;;;;5045680;28;20217;-74
2022/11/14 12:30:15;;;;;;;0.08;0.08;;;17.90;99.90;17.40;97082.00;;;;5048045;28;20225;-74
2022/11/14 12:33:09;;;;;;;0.00;0.00;;;18.10;99.90;17.60;97089.00;;;;5051336;28;20213;-74
2022/11/14 12:36:01;;;;;;;0.00;0.00;;;18.30;99.90;17.20;97084.00;;;;5047091;28;20826;-74
2022/11/14 12:38:53;;;;;;;0.00;0.00;;;18.00;99.90;16.20;97074.00;;;;5044818;28;20213;-74
2022/11/14 12:41:41;;;;;;;0.00;0.00;;;17.10;99.90;16.20;97069.00;;;;5053437;28;20340;-74
2022/11/14 12:44:37;;;;;;;0.00;0.00;;;17.20;99.90;16.20;97291.00;;;;5052738;28;20333;-74
2022/11/14 12:47:25;;;;;;;0.00;0.00;;;17.00;99.90;16.00;97284.00;;;;5051590;28;20216;-74
2022/11/14 12:50:42;;;;;;;0.00;0.00;;;16.70;99.90;15.70;97275.00;;;;5043795;28;20229;-74
2022/11/14 12:53:44;;;;;;;0.00;0.00;;;16.30;99.90;15.00;97270.00;;;;5050996;28;20305;-74
2022/11/14 12:57:08;;;;;;;0.00;0.00;;;15.50;99.90;14.40;97267.00;;;;5047550;28;20252;-74